Airfield :
LOGIN :

Register | Disclaimer

   EN    FR    IT 

 










Legend :    VFR   Marginal VFR   IFR   Intensive IFR   Very Intensive IFR
Visi :
Ceiling :
>= 8 km
>= 3000ft
5 to 8 km
1000 to 3000 ft
1500m to 5 km
500 to 1000 ft
800 to 1500m
200 to 500 ft
< 800m
< 200 ft
Symbols :   Thunderstorms  Fog  Heavy snow  Heavy precipitations  Wind > 20 kt
SIGMETs :     Misc.  Thunderstorms  Icing  Turbulence  Mountain Waves  Volcanic Ashes






- Airport Elevation : 239 ft
- IATA code : VRN


LIPX - Villafranca Int. Verona

CURRENT METAR :
  • 291050Z 10006KT 050V140 9999 SCT070 19/14 Q0999

EXPIRED METARs :
  • 291020Z 07007KT 030V110 9999 FEW070 19/14 Q0999
  • 290950Z 07005KT 030V110 9999 SCT075 18/14 Q0999
  • 290920Z 05004KT 020V090 9999 SCT070 17/13 Q0999
  • 290850Z 36006KT 9999 FEW050 SCT080 17/13 Q0999
  • 290820Z 01006KT 9999 FEW025 SCT070 16/13 Q0999 RERA

TAF TAF LIPX
Valid from the 29 at 06:00 until the 30 at 06:00 UTC


290500Z 2906/3006 VRB05KT 9999 SCT050
TEMPO 2909/2918 4000 TSRA
TEMPO 2912/2914 08010KT
TEMPO 2918/3006 4000 SHRA



MET'MAP, your aeronautical weather chart ! - Copyright ORBIFLY December 2007 - Disclaimer

ORBIFLY MET'MAP TEAM :

Programming & Development : Alexandra Zaïnal
Original concept : Baudouin d'Aumeries
Technical & hardware support : Manuel Goepfert
Assistance : Marc-Olivier Méhu




SOURCES & CREDITS :

   NOAA